createdAt,value
2019-05-17T00:00:07.991Z,9.50
2019-05-17T00:02:37.398Z,9.33
2019-05-17T00:05:07.092Z,8.77
2019-05-17T00:07:36.947Z,8.87
2019-05-17T00:10:06.970Z,9.23
2019-05-17T00:12:36.819Z,8.90
2019-05-17T00:15:08.111Z,8.87
2019-05-17T00:17:37.650Z,8.90
2019-05-17T00:20:08.147Z,9.00
2019-05-17T00:22:36.810Z,8.50
2019-05-17T00:25:07.471Z,8.10
2019-05-17T00:27:36.883Z,7.53
2019-05-17T00:30:08.411Z,9.10
2019-05-17T00:32:37.062Z,9.47
2019-05-17T00:35:07.294Z,9.10
2019-05-17T00:37:37.238Z,9.23
2019-05-17T00:40:07.662Z,9.93
2019-05-17T00:42:37.213Z,10.27
2019-05-17T00:45:07.490Z,11.00
2019-05-17T00:47:37.528Z,11.03
2019-05-17T00:50:07.802Z,10.97
2019-05-17T00:52:36.796Z,12.40
2019-05-17T00:55:08.899Z,12.20
2019-05-17T00:57:37.310Z,12.57
2019-05-17T01:00:09.054Z,12.80
2019-05-17T01:02:37.450Z,13.20
2019-05-17T01:05:08.083Z,12.60
2019-05-17T01:07:37.613Z,13.00
2019-05-17T01:10:08.141Z,13.00
2019-05-17T01:12:36.804Z,14.30
2019-05-17T01:15:07.616Z,14.40
2019-05-17T01:17:36.594Z,16.00
2019-05-17T01:20:09.036Z,15.33
2019-05-17T01:22:37.439Z,15.87
2019-05-17T01:25:07.388Z,17.80
2019-05-17T01:27:37.983Z,18.00
2019-05-17T01:30:07.998Z,19.63
2019-05-17T01:32:37.364Z,19.63
2019-05-17T01:35:07.475Z,19.47
2019-05-17T01:37:36.916Z,19.70
2019-05-17T01:40:07.391Z,18.53
2019-05-17T01:42:37.475Z,20.37
2019-05-17T01:45:07.367Z,19.70
2019-05-17T01:47:36.805Z,18.93
2019-05-17T01:50:08.795Z,19.70
2019-05-17T01:52:37.266Z,19.97
2019-05-17T01:55:07.579Z,20.17
2019-05-17T01:57:36.999Z,20.33
2019-05-17T02:00:12.499Z,20.27
2019-05-17T02:02:47.093Z,20.70
2019-05-17T02:05:17.294Z,22.07
2019-05-17T02:07:46.594Z,20.10
2019-05-17T02:10:16.760Z,21.17
2019-05-17T02:12:48.777Z,21.83
2019-05-17T02:15:16.648Z,21.23
2019-05-17T02:17:46.881Z,21.80
2019-05-17T02:20:17.011Z,23.00
2019-05-17T02:22:47.326Z,22.73
2019-05-17T02:25:17.627Z,22.30
2019-05-17T02:27:46.031Z,22.13
2019-05-17T02:30:15.194Z,23.30
2019-05-17T02:32:44.739Z,24.20
2019-05-17T02:35:14.652Z,22.73
2019-05-17T02:37:43.832Z,23.10
2019-05-17T02:40:14.704Z,22.27
2019-05-17T02:42:43.446Z,22.27
2019-05-17T02:45:13.319Z,22.57
2019-05-17T02:47:43.729Z,22.60
2019-05-17T02:50:13.992Z,23.40
2019-05-17T02:52:43.809Z,24.43
2019-05-17T02:55:13.247Z,23.30
2019-05-17T02:57:43.426Z,24.70
2019-05-17T03:00:13.703Z,23.43
2019-05-17T03:02:43.377Z,25.00
2019-05-17T03:05:13.029Z,24.47
2019-05-17T03:07:44.068Z,24.40
2019-05-17T03:10:23.014Z,24.97
2019-05-17T03:12:44.517Z,25.00
2019-05-17T03:15:13.239Z,24.43
2019-05-17T03:17:43.347Z,24.40
2019-05-17T03:20:13.173Z,24.83
2019-05-17T03:22:43.989Z,25.57
2019-05-17T03:25:13.699Z,24.40
2019-05-17T03:27:42.983Z,24.87
2019-05-17T03:30:17.030Z,24.83
2019-05-17T03:32:46.901Z,25.53
2019-05-17T03:35:16.796Z,23.47
2019-05-17T03:37:43.971Z,25.93
2019-05-17T03:40:24.939Z,24.57
2019-05-17T03:42:43.552Z,24.63
2019-05-17T03:45:13.710Z,24.03
2019-05-17T03:47:44.575Z,24.77
2019-05-17T03:50:13.985Z,23.50
2019-05-17T03:52:44.546Z,23.93
2019-05-17T03:55:13.516Z,23.27
2019-05-17T03:57:44.008Z,22.33
2019-05-17T04:00:13.994Z,24.57
2019-05-17T04:02:44.499Z,24.60
2019-05-17T04:05:14.512Z,24.30
2019-05-17T04:07:43.748Z,22.70
2019-05-17T04:10:15.251Z,24.83
2019-05-17T04:12:44.254Z,23.77
2019-05-17T04:15:13.759Z,24.23
2019-05-17T04:17:43.810Z,24.00
2019-05-17T04:20:13.918Z,22.63
2019-05-17T04:22:44.340Z,23.13
2019-05-17T04:25:13.724Z,23.50
2019-05-17T04:27:43.642Z,23.47
2019-05-17T04:30:13.251Z,23.37
2019-05-17T04:32:44.370Z,22.83
2019-05-17T04:35:13.860Z,23.03
2019-05-17T04:37:44.818Z,22.63
2019-05-17T04:40:14.272Z,23.43
2019-05-17T04:42:44.285Z,23.37
2019-05-17T04:45:13.456Z,24.30
2019-05-17T04:47:44.573Z,23.57
2019-05-17T04:50:14.186Z,24.17
2019-05-17T04:52:43.459Z,23.17
2019-05-17T04:55:13.707Z,23.80
2019-05-17T04:57:43.739Z,23.37
2019-05-17T05:00:13.379Z,22.93
2019-05-17T05:02:43.757Z,22.57
2019-05-17T05:05:16.820Z,23.00
2019-05-17T05:07:45.223Z,22.70
2019-05-17T05:10:14.481Z,22.73
2019-05-17T05:12:43.994Z,22.77
2019-05-17T05:15:16.135Z,22.97
2019-05-17T05:17:44.557Z,22.40
2019-05-17T05:20:13.768Z,22.20
2019-05-17T05:22:42.933Z,22.53
2019-05-17T05:25:12.843Z,23.53
2019-05-17T05:27:42.767Z,23.07
2019-05-17T05:30:12.192Z,21.30
2019-05-17T05:32:42.650Z,21.40
2019-05-17T05:35:12.429Z,22.23
2019-05-17T05:37:42.344Z,21.30
2019-05-17T05:40:12.798Z,21.23
2019-05-17T05:42:42.611Z,20.50
2019-05-17T05:45:12.809Z,21.13
2019-05-17T05:47:42.478Z,21.03
2019-05-17T05:50:12.526Z,20.73
2019-05-17T05:52:42.392Z,20.13
2019-05-17T05:55:12.414Z,21.07
2019-05-17T05:57:42.075Z,19.87
2019-05-17T06:00:13.042Z,20.27
2019-05-17T06:02:42.062Z,19.93
2019-05-17T06:05:14.666Z,21.10
2019-05-17T06:07:41.794Z,18.63
2019-05-17T06:10:12.879Z,19.13
2019-05-17T06:12:43.331Z,18.77
2019-05-17T06:15:12.519Z,19.03
2019-05-17T06:17:42.775Z,18.80
2019-05-17T06:20:12.080Z,18.67
2019-05-17T06:22:42.872Z,18.90
2019-05-17T06:25:15.073Z,18.87
2019-05-17T06:27:41.621Z,18.23
2019-05-17T06:30:12.661Z,17.97
2019-05-17T06:32:43.176Z,19.00
2019-05-17T06:35:12.537Z,18.70
2019-05-17T06:37:42.269Z,18.13
2019-05-17T06:40:12.949Z,18.30
2019-05-17T06:42:45.301Z,17.77
2019-05-17T06:45:13.874Z,17.23
2019-05-17T06:47:42.818Z,17.50
2019-05-17T06:50:14.248Z,17.43
2019-05-17T06:52:43.378Z,16.40
2019-05-17T06:55:13.687Z,15.40
2019-05-17T06:57:43.386Z,14.50
2019-05-17T07:00:19.210Z,15.87
2019-05-17T07:02:42.468Z,15.23
2019-05-17T07:05:12.555Z,14.63
2019-05-17T07:07:40.971Z,14.90
2019-05-17T07:10:11.147Z,14.40
2019-05-17T07:12:54.600Z,13.67
2019-05-17T07:15:10.819Z,14.10
2019-05-17T07:17:40.030Z,14.20
2019-05-17T07:20:10.301Z,13.70
2019-05-17T07:22:40.813Z,13.10
2019-05-17T07:25:10.772Z,12.73
2019-05-17T07:27:44.832Z,12.47
2019-05-17T07:30:10.567Z,12.07
2019-05-17T07:32:40.603Z,12.10
2019-05-17T07:35:10.669Z,11.67
2019-05-17T07:37:39.960Z,11.97
2019-05-17T07:40:10.812Z,12.50
2019-05-17T07:42:39.741Z,12.00
2019-05-17T07:45:10.176Z,12.13
2019-05-17T07:47:40.370Z,11.43
2019-05-17T07:50:11.479Z,11.67
2019-05-17T07:52:40.172Z,11.27
2019-05-17T07:55:10.999Z,12.10
2019-05-17T07:57:40.959Z,11.37
2019-05-17T08:00:10.501Z,11.10
2019-05-17T08:02:40.200Z,11.50
2019-05-17T08:05:10.521Z,11.43
2019-05-17T08:07:40.513Z,11.63
2019-05-17T08:10:10.895Z,11.07
2019-05-17T08:12:40.589Z,10.57
2019-05-17T08:15:11.120Z,10.43
2019-05-17T08:17:39.972Z,10.63
2019-05-17T08:20:10.250Z,9.67
2019-05-17T08:22:39.850Z,10.33
2019-05-17T08:25:10.235Z,10.67
2019-05-17T08:27:40.661Z,10.70
2019-05-17T08:30:10.635Z,9.97
2019-05-17T08:32:40.853Z,9.43
2019-05-17T08:35:11.296Z,11.07
2019-05-17T08:37:42.368Z,10.67
2019-05-17T08:40:10.854Z,9.20
2019-05-17T08:42:40.708Z,10.27
2019-05-17T08:45:09.800Z,9.70
2019-05-17T08:47:39.741Z,10.57
2019-05-17T08:50:11.186Z,9.97
2019-05-17T08:52:40.295Z,10.40
2019-05-17T08:55:09.892Z,9.33
2019-05-17T08:57:40.129Z,9.30
2019-05-17T09:00:10.683Z,10.90
2019-05-17T09:02:40.956Z,10.17
2019-05-17T09:05:10.069Z,8.70
2019-05-17T09:07:40.140Z,8.00
2019-05-17T09:10:10.166Z,7.47
2019-05-17T09:12:40.960Z,6.50
2019-05-17T09:15:10.023Z,7.23
2019-05-17T09:17:39.582Z,6.77
2019-05-17T09:20:10.670Z,5.20
2019-05-17T09:22:39.663Z,4.67
2019-05-17T09:25:13.548Z,6.93
2019-05-17T09:27:39.937Z,4.60
2019-05-17T09:30:09.607Z,5.20
2019-05-17T09:32:40.493Z,5.37
2019-05-17T09:35:10.078Z,5.70
2019-05-17T09:37:41.406Z,4.80
2019-05-17T09:40:09.588Z,5.43
2019-05-17T09:42:40.815Z,5.00
2019-05-17T09:45:09.905Z,5.33
2019-05-17T09:47:39.643Z,6.13
2019-05-17T09:50:09.896Z,6.13
2019-05-17T09:52:40.642Z,6.73
2019-05-17T09:55:09.949Z,5.30
2019-05-17T09:57:40.967Z,4.70
2019-05-17T10:00:10.063Z,4.90
2019-05-17T10:02:40.130Z,4.83
2019-05-17T10:05:10.648Z,4.63
2019-05-17T10:07:40.251Z,4.80
2019-05-17T10:10:10.663Z,6.00
2019-05-17T10:12:40.344Z,6.80
2019-05-17T10:15:09.974Z,6.30
2019-05-17T10:17:38.749Z,6.53
2019-05-17T10:20:07.456Z,6.17
2019-05-17T10:22:35.929Z,6.87
2019-05-17T10:25:06.153Z,7.10
2019-05-17T10:27:34.535Z,6.23
2019-05-17T10:30:04.184Z,6.00
2019-05-17T10:32:32.575Z,6.73
2019-05-17T10:35:00.985Z,6.67
2019-05-17T10:37:30.253Z,8.23
2019-05-17T10:39:58.870Z,6.57
2019-05-17T10:42:27.266Z,10.07
2019-05-17T10:44:55.682Z,7.83
2019-05-17T10:47:24.083Z,6.97
2019-05-17T10:49:52.483Z,6.23
2019-05-17T10:52:20.963Z,7.67
2019-05-17T10:54:49.363Z,6.47
2019-05-17T10:57:19.467Z,6.63
2019-05-17T10:59:49.765Z,8.10
2019-05-17T11:02:19.680Z,7.43
2019-05-17T11:04:50.496Z,6.57
2019-05-17T11:07:19.945Z,7.17
2019-05-17T11:09:50.854Z,7.00
2019-05-17T11:12:18.698Z,7.27
2019-05-17T11:14:52.511Z,6.50
2019-05-17T11:17:17.224Z,6.80
2019-05-17T11:19:45.623Z,6.50
2019-05-17T11:22:14.107Z,6.03
2019-05-17T11:24:42.603Z,6.43
2019-05-17T11:27:10.998Z,5.87
2019-05-17T11:29:39.422Z,6.13
2019-05-17T11:32:07.815Z,5.33
2019-05-17T11:34:36.227Z,5.50
2019-05-17T11:37:04.680Z,5.77
2019-05-17T11:39:33.071Z,4.70
2019-05-17T11:42:01.486Z,5.37
2019-05-17T11:44:29.874Z,6.10
2019-05-17T11:46:58.284Z,5.73
2019-05-17T11:49:26.672Z,4.80
2019-05-17T11:51:55.086Z,5.20
2019-05-17T11:54:23.494Z,4.80
2019-05-17T11:56:51.904Z,5.30
2019-05-17T11:59:20.307Z,5.87
2019-05-17T12:01:48.717Z,5.80
2019-05-17T12:04:17.144Z,5.13
2019-05-17T12:06:45.610Z,5.50
2019-05-17T12:09:13.998Z,5.63
2019-05-17T12:11:42.411Z,4.80
2019-05-17T12:14:10.799Z,5.53
2019-05-17T12:16:39.211Z,5.67
2019-05-17T12:19:07.606Z,4.80
2019-05-17T12:21:36.020Z,4.80
2019-05-17T12:24:04.561Z,4.97
2019-05-17T12:26:32.967Z,5.60
2019-05-17T12:29:01.363Z,5.83
2019-05-17T12:31:29.762Z,5.13
2019-05-17T12:33:58.163Z,5.60
2019-05-17T12:36:26.644Z,5.93
2019-05-17T12:38:55.045Z,5.10
2019-05-17T12:41:23.470Z,5.67
2019-05-17T12:43:51.879Z,4.90
2019-05-17T12:46:20.351Z,4.63
2019-05-17T12:48:48.757Z,4.77
2019-05-17T12:51:17.146Z,4.60
2019-05-17T12:53:45.552Z,4.77
2019-05-17T12:56:13.955Z,5.90
2019-05-17T12:58:42.363Z,4.93
2019-05-17T13:01:10.765Z,5.20
2019-05-17T13:03:39.162Z,5.17
2019-05-17T13:06:07.579Z,4.73
2019-05-17T13:08:35.983Z,4.23
2019-05-17T13:11:04.544Z,4.90
2019-05-17T13:13:33.007Z,4.97
2019-05-17T13:16:16.753Z,4.60
2019-05-17T13:18:31.532Z,4.10
2019-05-17T13:20:59.919Z,4.57
2019-05-17T13:23:28.328Z,4.67
2019-05-17T13:25:56.724Z,4.80
2019-05-17T13:28:25.126Z,5.07
2019-05-17T13:30:53.510Z,4.63
2019-05-17T13:33:21.927Z,4.03
2019-05-17T13:35:50.388Z,4.00
2019-05-17T13:38:18.799Z,4.17
2019-05-17T13:40:47.225Z,3.83
2019-05-17T13:43:15.736Z,3.80
2019-05-17T13:45:44.817Z,4.00
2019-05-17T13:48:13.550Z,3.73
2019-05-17T13:50:42.092Z,4.37
2019-05-17T13:53:10.547Z,4.97
2019-05-17T13:55:38.948Z,4.10
2019-05-17T13:58:07.363Z,3.70
2019-05-17T14:00:35.764Z,4.33
2019-05-17T14:03:04.403Z,3.80
2019-05-17T14:05:32.856Z,3.97
2019-05-17T14:08:01.228Z,4.07
2019-05-17T14:10:32.080Z,3.87
2019-05-17T14:12:59.743Z,3.53
2019-05-17T14:15:28.151Z,4.07
2019-05-17T14:17:56.619Z,4.20
2019-05-17T14:20:25.071Z,3.73
2019-05-17T14:22:53.506Z,4.40
2019-05-17T14:25:21.921Z,3.93
2019-05-17T14:27:50.347Z,3.60
2019-05-17T14:30:18.900Z,4.00
2019-05-17T14:32:47.290Z,5.20
2019-05-17T14:35:15.919Z,3.40
2019-05-17T14:37:44.394Z,3.50
2019-05-17T14:40:13.143Z,3.57
2019-05-17T14:42:41.547Z,3.90
2019-05-17T14:45:10.387Z,4.00
2019-05-17T14:47:38.783Z,4.23
2019-05-17T14:50:07.522Z,4.57
2019-05-17T14:52:35.934Z,4.50
2019-05-17T14:55:04.585Z,4.23
2019-05-17T14:57:32.976Z,5.10
2019-05-17T15:00:01.403Z,5.70
2019-05-17T15:02:29.787Z,3.90
2019-05-17T15:04:58.201Z,3.70
2019-05-17T15:07:26.590Z,3.63
2019-05-17T15:09:55.110Z,3.60
2019-05-17T15:12:28.249Z,3.90
2019-05-17T15:14:53.644Z,3.50
2019-05-17T15:17:22.040Z,3.10
2019-05-17T15:19:51.387Z,4.00
2019-05-17T15:22:20.034Z,3.17
2019-05-17T15:24:48.436Z,3.80
2019-05-17T15:27:16.836Z,4.03
2019-05-17T15:29:45.239Z,5.53
2019-05-17T15:32:13.639Z,3.43
2019-05-17T15:34:42.035Z,4.00
2019-05-17T15:37:10.497Z,4.30
2019-05-17T15:39:38.922Z,5.00
2019-05-17T15:42:07.345Z,3.53
2019-05-17T15:44:35.739Z,3.50
2019-05-17T15:47:04.214Z,3.50
2019-05-17T15:49:32.609Z,2.97
2019-05-17T15:52:01.012Z,3.70
2019-05-17T15:54:29.411Z,3.77
2019-05-17T15:56:57.810Z,3.80
2019-05-17T15:59:26.199Z,4.50
2019-05-17T16:01:54.635Z,7.60
2019-05-17T16:04:23.031Z,5.50
2019-05-17T16:06:51.435Z,5.50
2019-05-17T16:09:19.832Z,4.10
2019-05-17T16:11:48.240Z,4.47
2019-05-17T16:14:16.636Z,5.20
2019-05-17T16:16:45.055Z,4.30
2019-05-17T16:19:13.443Z,4.13
2019-05-17T16:21:41.846Z,4.37
2019-05-17T16:24:10.307Z,4.53
2019-05-17T16:26:38.717Z,4.57
2019-05-17T16:29:07.102Z,5.40
2019-05-17T16:31:35.515Z,5.23
2019-05-17T16:34:03.908Z,4.63
2019-05-17T16:36:32.315Z,4.70
2019-05-17T16:39:00.730Z,4.43
2019-05-17T16:41:29.165Z,5.30
2019-05-17T16:43:57.598Z,4.50
2019-05-17T16:46:26.078Z,4.43
2019-05-17T16:48:54.480Z,4.80
2019-05-17T16:51:22.876Z,4.20
2019-05-17T16:53:51.284Z,3.83
2019-05-17T16:56:19.670Z,5.60
2019-05-17T16:58:48.087Z,4.10
2019-05-17T17:01:16.521Z,6.67
2019-05-17T17:03:44.994Z,5.77
2019-05-17T17:06:13.431Z,4.73
2019-05-17T17:08:42.270Z,3.77
2019-05-17T17:11:10.671Z,3.80
2019-05-17T17:13:39.090Z,3.57
2019-05-17T17:16:07.493Z,5.93
2019-05-17T17:18:35.900Z,3.90
2019-05-17T17:21:04.433Z,4.43
2019-05-17T17:23:32.836Z,4.27
2019-05-17T17:26:01.219Z,4.80
2019-05-17T17:28:29.627Z,4.20
2019-05-17T17:30:58.027Z,4.00
2019-05-17T17:33:26.637Z,3.73
2019-05-17T17:35:55.086Z,4.17
2019-05-17T17:38:23.576Z,3.43
2019-05-17T17:40:51.977Z,4.70
2019-05-17T17:43:20.378Z,4.30
2019-05-17T17:45:48.820Z,4.57
2019-05-17T17:48:17.328Z,4.67
2019-05-17T17:50:46.497Z,5.23
2019-05-17T17:53:14.882Z,4.50
2019-05-17T17:55:43.296Z,7.10
2019-05-17T17:58:11.721Z,5.30
2019-05-17T18:00:40.215Z,9.40
2019-05-17T18:03:11.140Z,5.60
2019-05-17T18:05:38.755Z,4.87
2019-05-17T18:08:07.151Z,5.53
2019-05-17T18:10:37.404Z,5.80
2019-05-17T18:13:05.794Z,7.50
2019-05-17T18:15:44.937Z,6.93
2019-05-17T18:18:16.498Z,6.00
2019-05-17T18:20:45.075Z,5.63
2019-05-17T18:23:15.017Z,5.47
2019-05-17T18:25:43.414Z,6.33
2019-05-17T18:28:13.995Z,6.07
2019-05-17T18:30:44.171Z,6.40
2019-05-17T18:33:16.914Z,8.83
2019-05-17T18:35:45.411Z,9.17
2019-05-17T18:38:17.079Z,8.90
2019-05-17T18:40:45.532Z,9.10
2019-05-17T18:43:15.631Z,9.53
2019-05-17T18:45:44.100Z,7.47
2019-05-17T18:48:12.499Z,9.73
2019-05-17T18:50:42.688Z,10.77
2019-05-17T18:53:17.317Z,11.00
2019-05-17T18:55:48.599Z,10.73
2019-05-17T18:58:17.011Z,11.83
2019-05-17T19:00:45.868Z,12.27
2019-05-17T19:03:14.259Z,9.60
2019-05-17T19:05:45.293Z,9.90
2019-05-17T19:08:13.118Z,10.00
2019-05-17T19:10:43.237Z,11.17
2019-05-17T19:13:11.638Z,10.10
2019-05-17T19:15:40.047Z,11.50
2019-05-17T19:18:08.453Z,11.50
2019-05-17T19:20:37.052Z,11.77
2019-05-17T19:23:05.451Z,14.47
2019-05-17T19:25:34.040Z,12.37
2019-05-17T19:28:02.518Z,13.90
2019-05-17T19:30:32.636Z,11.67
2019-05-17T19:33:01.047Z,12.43
2019-05-17T19:35:32.491Z,13.60
2019-05-17T19:38:00.887Z,11.70
2019-05-17T19:40:29.299Z,10.43
2019-05-17T19:42:57.691Z,9.00
2019-05-17T19:45:27.867Z,9.50
2019-05-17T19:47:56.281Z,9.20
2019-05-17T19:50:24.701Z,8.87
2019-05-17T19:52:53.095Z,9.40
2019-05-17T19:55:22.269Z,9.57
2019-05-17T19:57:50.732Z,8.57
2019-05-17T20:00:19.468Z,9.80
2019-05-17T20:02:47.882Z,9.20
2019-05-17T20:05:18.019Z,8.77
2019-05-17T20:07:46.767Z,8.80
2019-05-17T20:10:15.629Z,8.63
2019-05-17T20:12:44.027Z,9.07
2019-05-17T20:15:17.695Z,8.67
2019-05-17T20:17:45.866Z,9.13
2019-05-17T20:20:16.068Z,8.43
2019-05-17T20:22:44.614Z,8.67
2019-05-17T20:25:14.437Z,8.57
2019-05-17T20:27:42.876Z,9.10
2019-05-17T20:30:11.815Z,9.30
2019-05-17T20:32:40.240Z,9.50
2019-05-17T20:35:09.076Z,9.40
2019-05-17T20:37:37.502Z,9.37
2019-05-17T20:40:06.826Z,8.43
2019-05-17T20:42:35.384Z,8.53
2019-05-17T20:45:05.620Z,9.93
2019-05-17T20:47:34.047Z,10.23
2019-05-17T20:50:02.518Z,9.67
2019-05-17T20:52:30.990Z,9.03
2019-05-17T20:54:59.391Z,9.30
2019-05-17T20:57:27.799Z,9.60
2019-05-17T20:59:56.199Z,9.23
2019-05-17T21:02:24.683Z,8.47
2019-05-17T21:04:53.070Z,8.80
2019-05-17T21:07:21.493Z,8.80
2019-05-17T21:09:49.968Z,9.23
2019-05-17T21:12:18.383Z,9.07
2019-05-17T21:14:46.783Z,9.80
2019-05-17T21:17:16.201Z,10.10
2019-05-17T21:19:44.667Z,9.60
2019-05-17T21:22:13.087Z,10.00
2019-05-17T21:24:41.502Z,10.30
2019-05-17T21:27:09.934Z,10.57
2019-05-17T21:29:38.337Z,10.37
2019-05-17T21:32:06.816Z,10.87
2019-05-17T21:34:35.219Z,10.80
2019-05-17T21:37:03.644Z,10.67
2019-05-17T21:39:32.137Z,11.50
2019-05-17T21:42:00.610Z,10.03
2019-05-17T21:44:29.007Z,9.63
2019-05-17T21:47:04.584Z,10.17
2019-05-17T21:49:27.543Z,9.97
2019-05-17T21:51:55.959Z,9.23
2019-05-17T21:54:24.551Z,10.27
2019-05-17T21:56:52.966Z,8.97
2019-05-17T21:59:21.401Z,9.77
2019-05-17T22:01:50.103Z,10.40
2019-05-17T22:04:18.520Z,10.37
2019-05-17T22:06:46.923Z,10.77
2019-05-17T22:09:15.372Z,9.90
2019-05-17T22:11:45.406Z,10.03
2019-05-17T22:14:15.361Z,10.77
2019-05-17T22:16:43.759Z,10.80
2019-05-17T22:19:12.191Z,10.77
2019-05-17T22:21:40.638Z,10.30
2019-05-17T22:24:09.118Z,10.17
2019-05-17T22:26:37.591Z,10.10
2019-05-17T22:29:06.001Z,10.70
2019-05-17T22:31:34.432Z,10.83
2019-05-17T22:34:02.845Z,10.83
2019-05-17T22:36:31.247Z,11.73
2019-05-17T22:39:01.506Z,9.80
2019-05-17T22:41:29.979Z,10.57
2019-05-17T22:43:58.397Z,10.77
2019-05-17T22:46:35.478Z,11.33
2019-05-17T22:48:56.925Z,10.30
2019-05-17T22:51:25.354Z,10.63
2019-05-17T22:53:53.771Z,11.47
2019-05-17T22:56:22.186Z,11.43
2019-05-17T22:58:50.607Z,11.50
2019-05-17T23:01:19.003Z,11.00
2019-05-17T23:03:47.434Z,10.67
2019-05-17T23:06:15.836Z,10.97
2019-05-17T23:08:45.895Z,11.43
2019-05-17T23:11:14.298Z,11.73
2019-05-17T23:13:42.707Z,10.93
2019-05-17T23:16:12.685Z,11.27
2019-05-17T23:18:42.722Z,10.97
2019-05-17T23:21:11.149Z,10.93
2019-05-17T23:23:39.531Z,11.03
2019-05-17T23:26:07.938Z,11.73
2019-05-17T23:28:36.346Z,11.23
2019-05-17T23:31:04.758Z,11.03
2019-05-17T23:33:33.168Z,10.23
2019-05-17T23:36:01.575Z,10.30
2019-05-17T23:38:29.967Z,10.33
2019-05-17T23:40:58.378Z,10.97
2019-05-17T23:43:26.807Z,10.23
2019-05-17T23:45:55.223Z,9.53
2019-05-17T23:48:23.699Z,10.00
2019-05-17T23:50:52.127Z,12.63
2019-05-17T23:53:20.514Z,13.57
2019-05-17T23:55:48.935Z,11.33
2019-05-17T23:58:17.334Z,11.57
